sensor_id;sensor_type;location;lat;lon;timestamp;pressure;altitude;pressure_sealevel;temperature;humidity
17383;BME280;8809;51.892;8.384;2022-07-29T00:00:21;100710.53;;;19.05;70.08
17383;BME280;8809;51.892;8.384;2022-07-29T00:02:48;100707.00;;;19.03;69.34
17383;BME280;8809;51.892;8.384;2022-07-29T00:05:15;100705.22;;;19.03;69.52
17383;BME280;8809;51.892;8.384;2022-07-29T00:07:42;100699.94;;;19.02;69.33
17383;BME280;8809;51.892;8.384;2022-07-29T00:10:10;100693.75;;;19.01;69.93
17383;BME280;8809;51.892;8.384;2022-07-29T00:12:37;100692.88;;;19.01;70.05
17383;BME280;8809;51.892;8.384;2022-07-29T00:15:07;100691.97;;;19.00;69.38
17383;BME280;8809;51.892;8.384;2022-07-29T00:17:34;100691.09;;;19.00;69.90
17383;BME280;8809;51.892;8.384;2022-07-29T00:20:06;100691.06;;;18.98;70.06
17383;BME280;8809;51.892;8.384;2022-07-29T00:22:36;100691.94;;;18.97;69.63
17383;BME280;8809;51.892;8.384;2022-07-29T00:25:04;100699.00;;;18.97;69.98
17383;BME280;8809;51.892;8.384;2022-07-29T00:27:32;100693.69;;;18.95;69.85
17383;BME280;8809;51.892;8.384;2022-07-29T00:29:59;100687.53;;;18.93;70.23
17383;BME280;8809;51.892;8.384;2022-07-29T00:32:31;100691.03;;;18.94;70.25
17383;BME280;8809;51.892;8.384;2022-07-29T00:34:58;100691.91;;;18.91;70.62
17383;BME280;8809;51.892;8.384;2022-07-29T00:37:43;100686.59;;;18.89;70.34
17383;BME280;8809;51.892;8.384;2022-07-29T00:40:16;100682.19;;;18.88;70.37
17383;BME280;8809;51.892;8.384;2022-07-29T00:42:43;100683.03;;;18.87;70.96
17383;BME280;8809;51.892;8.384;2022-07-29T00:45:11;100683.91;;;18.86;70.49
17383;BME280;8809;51.892;8.384;2022-07-29T00:47:40;100682.13;;;18.85;71.38
17383;BME280;8809;51.892;8.384;2022-07-29T00:50:13;100688.28;;;18.84;71.54
17383;BME280;8809;51.892;8.384;2022-07-29T00:52:41;100684.78;;;18.82;70.74
17383;BME280;8809;51.892;8.384;2022-07-29T00:55:10;100681.25;;;18.82;71.42
17383;BME280;8809;51.892;8.384;2022-07-29T00:57:38;100673.31;;;18.80;71.62
17383;BME280;8809;51.892;8.384;2022-07-29T01:00:07;100675.03;;;18.78;71.18
17383;BME280;8809;51.892;8.384;2022-07-29T01:02:37;100665.31;;;18.77;71.26
17383;BME280;8809;51.892;8.384;2022-07-29T01:05:06;100659.13;;;18.75;71.43
17383;BME280;8809;51.892;8.384;2022-07-29T01:07:34;100660.00;;;18.74;71.46
17383;BME280;8809;51.892;8.384;2022-07-29T01:10:07;100656.50;;;18.72;72.05
17383;BME280;8809;51.892;8.384;2022-07-29T01:12:37;100651.19;;;18.71;72.05
17383;BME280;8809;51.892;8.384;2022-07-29T01:15:07;100646.75;;;18.68;72.00
17383;BME280;8809;51.892;8.384;2022-07-29T01:17:38;100651.13;;;18.68;72.25
17383;BME280;8809;51.892;8.384;2022-07-29T01:20:16;100648.47;;;18.66;72.08
17383;BME280;8809;51.892;8.384;2022-07-29T01:23:11;100644.97;;;18.64;72.34
17383;BME280;8809;51.892;8.384;2022-07-29T01:25:54;100635.25;;;18.63;71.99
17383;BME280;8809;51.892;8.384;2022-07-29T01:29:07;100631.69;;;18.60;71.97
17383;BME280;8809;51.892;8.384;2022-07-29T01:31:43;100639.59;;;18.58;72.34
17383;BME280;8809;51.892;8.384;2022-07-29T01:34:18;100632.53;;;18.57;72.33
17383;BME280;8809;51.892;8.384;2022-07-29T01:36:51;100625.44;;;18.56;72.08
17383;BME280;8809;51.892;8.384;2022-07-29T01:39:27;100621.03;;;18.55;72.22
17383;BME280;8809;51.892;8.384;2022-07-29T01:42:01;100612.22;;;18.53;72.45
17383;BME280;8809;51.892;8.384;2022-07-29T01:44:36;100622.78;;;18.53;72.73
17383;BME280;8809;51.892;8.384;2022-07-29T01:47:09;100623.66;;;18.50;72.54
17383;BME280;8809;51.892;8.384;2022-07-29T01:49:41;100625.41;;;18.50;72.81
17383;BME280;8809;51.892;8.384;2022-07-29T01:52:15;100629.78;;;18.49;72.20
17383;BME280;8809;51.892;8.384;2022-07-29T01:54:46;100613.03;;;18.47;72.16
17383;BME280;8809;51.892;8.384;2022-07-29T01:57:16;100618.28;;;18.46;72.58
17383;BME280;8809;51.892;8.384;2022-07-29T01:59:47;100604.22;;;18.44;72.55
17383;BME280;8809;51.892;8.384;2022-07-29T02:02:16;100613.91;;;18.43;73.23
17383;BME280;8809;51.892;8.384;2022-07-29T02:04:46;100605.94;;;18.42;72.61
17383;BME280;8809;51.892;8.384;2022-07-29T02:07:18;100602.41;;;18.40;72.91
17383;BME280;8809;51.892;8.384;2022-07-29T02:09:47;100605.91;;;18.39;72.89
17383;BME280;8809;51.892;8.384;2022-07-29T02:12:16;100605.00;;;18.37;72.66
17383;BME280;8809;51.892;8.384;2022-07-29T02:14:47;100605.88;;;18.36;72.69
17383;BME280;8809;51.892;8.384;2022-07-29T02:17:21;100608.53;;;18.34;73.24
17383;BME280;8809;51.892;8.384;2022-07-29T02:19:49;100603.22;;;18.33;72.85
17383;BME280;8809;51.892;8.384;2022-07-29T02:22:18;100605.84;;;18.31;73.33
17383;BME280;8809;51.892;8.384;2022-07-29T02:24:46;100597.00;;;18.28;73.20
17383;BME280;8809;51.892;8.384;2022-07-29T02:27:15;100590.84;;;18.26;73.52
17383;BME280;8809;51.892;8.384;2022-07-29T02:29:46;100590.81;;;18.24;73.59
17383;BME280;8809;51.892;8.384;2022-07-29T02:32:15;100592.53;;;18.22;73.34
17383;BME280;8809;51.892;8.384;2022-07-29T02:34:43;100589.00;;;18.22;73.47
17383;BME280;8809;51.892;8.384;2022-07-29T02:37:11;100591.63;;;18.18;73.70
17383;BME280;8809;51.892;8.384;2022-07-29T02:39:43;100589.84;;;18.17;73.15
17383;BME280;8809;51.892;8.384;2022-07-29T02:42:13;100592.50;;;18.16;73.64
17383;BME280;8809;51.892;8.384;2022-07-29T02:44:42;100584.53;;;18.13;73.53
17383;BME280;8809;51.892;8.384;2022-07-29T02:47:16;100585.38;;;18.12;73.89
17383;BME280;8809;51.892;8.384;2022-07-29T02:49:49;100587.13;;;18.10;74.26
17383;BME280;8809;51.892;8.384;2022-07-29T02:52:23;100586.22;;;18.08;73.71
17383;BME280;8809;51.892;8.384;2022-07-29T02:54:55;100584.47;;;18.07;73.72
17383;BME280;8809;51.892;8.384;2022-07-29T02:57:32;100585.31;;;18.04;74.04
17383;BME280;8809;51.892;8.384;2022-07-29T03:00:05;100584.41;;;18.02;74.07
17383;BME280;8809;51.892;8.384;2022-07-29T03:02:37;100586.13;;;18.00;74.32
17383;BME280;8809;51.892;8.384;2022-07-29T03:05:07;100587.00;;;17.99;74.18
17383;BME280;8809;51.892;8.384;2022-07-29T03:07:36;100584.34;;;17.96;74.42
17383;BME280;8809;51.892;8.384;2022-07-29T03:10:06;100583.47;;;17.96;74.71
17383;BME280;8809;51.892;8.384;2022-07-29T03:12:35;100590.47;;;17.94;74.21
17383;BME280;8809;51.892;8.384;2022-07-29T03:15:03;100593.09;;;17.92;74.56
17383;BME280;8809;51.892;8.384;2022-07-29T03:17:31;100586.03;;;17.91;74.56
17383;BME280;8809;51.892;8.384;2022-07-29T03:20:00;100590.41;;;17.89;74.50
17383;BME280;8809;51.892;8.384;2022-07-29T03:22:32;100587.78;;;17.88;74.39
17383;BME280;8809;51.892;8.384;2022-07-29T03:25:07;100587.75;;;17.86;74.78
17383;BME280;8809;51.892;8.384;2022-07-29T03:27:35;100587.72;;;17.85;74.95
17383;BME280;8809;51.892;8.384;2022-07-29T03:30:06;100588.56;;;17.82;74.57
17383;BME280;8809;51.892;8.384;2022-07-29T03:32:33;100585.91;;;17.80;75.00
17383;BME280;8809;51.892;8.384;2022-07-29T03:35:03;100591.16;;;17.79;74.76
17383;BME280;8809;51.892;8.384;2022-07-29T03:37:30;100586.75;;;17.76;74.78
17383;BME280;8809;51.892;8.384;2022-07-29T03:40:00;100585.88;;;17.76;75.30
17383;BME280;8809;51.892;8.384;2022-07-29T03:42:33;100580.53;;;17.73;75.24
17383;BME280;8809;51.892;8.384;2022-07-29T03:45:03;100582.25;;;17.71;75.08
17383;BME280;8809;51.892;8.384;2022-07-29T03:47:33;100581.34;;;17.69;75.27
17383;BME280;8809;51.892;8.384;2022-07-29T03:50:07;100585.75;;;17.67;75.19
17383;BME280;8809;51.892;8.384;2022-07-29T03:52:39;100587.47;;;17.65;75.29
17383;BME280;8809;51.892;8.384;2022-07-29T03:55:07;100581.31;;;17.64;75.52
17383;BME280;8809;51.892;8.384;2022-07-29T03:57:36;100574.19;;;17.62;75.52
17383;BME280;8809;51.892;8.384;2022-07-29T04:00:05;100578.56;;;17.60;75.43
17383;BME280;8809;51.892;8.384;2022-07-29T04:02:34;100570.66;;;17.58;75.13
17383;BME280;8809;51.892;8.384;2022-07-29T04:05:05;100580.31;;;17.58;75.40
17383;BME280;8809;51.892;8.384;2022-07-29T04:07:38;100572.38;;;17.56;75.59
17383;BME280;8809;51.892;8.384;2022-07-29T04:10:06;100584.69;;;17.56;75.38
17383;BME280;8809;51.892;8.384;2022-07-29T04:12:35;100585.56;;;17.55;75.48
17383;BME280;8809;51.892;8.384;2022-07-29T04:15:04;100589.94;;;17.54;75.77
17383;BME280;8809;51.892;8.384;2022-07-29T04:17:33;100593.44;;;17.53;75.86
17383;BME280;8809;51.892;8.384;2022-07-29T04:20:00;100597.81;;;17.53;75.93
17383;BME280;8809;51.892;8.384;2022-07-29T04:22:31;100593.41;;;17.52;75.70
17383;BME280;8809;51.892;8.384;2022-07-29T04:24:58;100588.13;;;17.52;75.40
17383;BME280;8809;51.892;8.384;2022-07-29T04:27:25;100589.88;;;17.51;75.97
17383;BME280;8809;51.892;8.384;2022-07-29T04:29:52;100589.00;;;17.51;75.81
17383;BME280;8809;51.892;8.384;2022-07-29T04:32:19;100589.00;;;17.51;76.01
17383;BME280;8809;51.892;8.384;2022-07-29T04:34:47;100585.47;;;17.49;75.73
17383;BME280;8809;51.892;8.384;2022-07-29T04:37:14;100576.69;;;17.50;76.16
17383;BME280;8809;51.892;8.384;2022-07-29T04:39:43;100581.94;;;17.50;76.10
17383;BME280;8809;51.892;8.384;2022-07-29T04:42:10;100590.75;;;17.50;76.43
17383;BME280;8809;51.892;8.384;2022-07-29T04:44:37;100588.13;;;17.49;76.49
17383;BME280;8809;51.892;8.384;2022-07-29T04:47:07;100585.47;;;17.49;76.30
17383;BME280;8809;51.892;8.384;2022-07-29T04:49:36;100577.56;;;17.49;76.24
17383;BME280;8809;51.892;8.384;2022-07-29T04:52:04;100576.69;;;17.50;76.22
17383;BME280;8809;51.892;8.384;2022-07-29T04:54:32;100583.72;;;17.51;76.79
17383;BME280;8809;51.892;8.384;2022-07-29T04:57:00;100585.50;;;17.52;76.47
17383;BME280;8809;51.892;8.384;2022-07-29T04:59:27;100583.75;;;17.52;76.62
17383;BME280;8809;51.892;8.384;2022-07-29T05:01:54;100583.78;;;17.54;76.60
17383;BME280;8809;51.892;8.384;2022-07-29T05:04:21;100581.16;;;17.55;76.67
17383;BME280;8809;51.892;8.384;2022-07-29T05:06:48;100577.66;;;17.56;76.93
17383;BME280;8809;51.892;8.384;2022-07-29T05:09:15;100569.78;;;17.58;77.13
17383;BME280;8809;51.892;8.384;2022-07-29T05:11:42;100561.84;;;17.59;77.51
17383;BME280;8809;51.892;8.384;2022-07-29T05:14:11;100567.22;;;17.62;77.13
17383;BME280;8809;51.892;8.384;2022-07-29T05:16:38;100568.09;;;17.63;77.35
17383;BME280;8809;51.892;8.384;2022-07-29T05:19:06;100576.03;;;17.64;76.91
17383;BME280;8809;51.892;8.384;2022-07-29T05:21:33;100568.16;;;17.66;77.02
17383;BME280;8809;51.892;8.384;2022-07-29T05:24:00;100564.66;;;17.67;77.39
17383;BME280;8809;51.892;8.384;2022-07-29T05:26:27;100567.31;;;17.68;77.26
17383;BME280;8809;51.892;8.384;2022-07-29T05:28:54;100558.50;;;17.69;77.65
17383;BME280;8809;51.892;8.384;2022-07-29T05:31:23;100562.03;;;17.71;77.79
17383;BME280;8809;51.892;8.384;2022-07-29T05:33:51;100559.41;;;17.71;78.18
17383;BME280;8809;51.892;8.384;2022-07-29T05:36:18;100557.66;;;17.72;77.85
17383;BME280;8809;51.892;8.384;2022-07-29T05:38:45;100560.31;;;17.73;77.90
17383;BME280;8809;51.892;8.384;2022-07-29T05:41:12;100567.38;;;17.74;78.00
17383;BME280;8809;51.892;8.384;2022-07-29T05:43:39;100566.50;;;17.75;77.77
17383;BME280;8809;51.892;8.384;2022-07-29T05:46:06;100573.56;;;17.76;78.25
17383;BME280;8809;51.892;8.384;2022-07-29T05:48:35;100580.59;;;17.77;77.69
17383;BME280;8809;51.892;8.384;2022-07-29T05:51:02;100585.88;;;17.79;78.46
17383;BME280;8809;51.892;8.384;2022-07-29T05:53:30;100585.94;;;17.82;78.04
17383;BME280;8809;51.892;8.384;2022-07-29T05:55:57;100588.59;;;17.84;78.72
17383;BME280;8809;51.892;8.384;2022-07-29T05:58:24;100597.41;;;17.86;78.29
17383;BME280;8809;51.892;8.384;2022-07-29T06:00:51;100597.44;;;17.87;78.73
17383;BME280;8809;51.892;8.384;2022-07-29T06:03:19;100600.09;;;17.90;79.61
17383;BME280;8809;51.892;8.384;2022-07-29T06:05:48;100599.25;;;17.93;79.91
17383;BME280;8809;51.892;8.384;2022-07-29T06:08:15;100604.56;;;17.96;80.21
17383;BME280;8809;51.892;8.384;2022-07-29T06:10:42;100601.09;;;18.00;82.09
17383;BME280;8809;51.892;8.384;2022-07-29T06:13:11;100594.94;;;18.01;80.66
17383;BME280;8809;51.892;8.384;2022-07-29T06:15:39;100602.94;;;18.05;82.61
17383;BME280;8809;51.892;8.384;2022-07-29T06:18:06;100605.59;;;18.08;82.49
17383;BME280;8809;51.892;8.384;2022-07-29T06:20:35;100605.66;;;18.13;82.13
17383;BME280;8809;51.892;8.384;2022-07-29T06:23:04;100604.81;;;18.15;81.57
17383;BME280;8809;51.892;8.384;2022-07-29T06:25:31;100612.75;;;18.20;82.85
17383;BME280;8809;51.892;8.384;2022-07-29T06:28:00;100604.00;;;18.23;82.63
17383;BME280;8809;51.892;8.384;2022-07-29T06:30:27;100599.59;;;18.26;83.22
17383;BME280;8809;51.892;8.384;2022-07-29T06:32:55;100605.81;;;18.30;83.61
17383;BME280;8809;51.892;8.384;2022-07-29T06:35:22;100600.56;;;18.31;82.26
17383;BME280;8809;51.892;8.384;2022-07-29T06:37:49;100593.56;;;18.35;83.12
17383;BME280;8809;51.892;8.384;2022-07-29T06:40:18;100598.88;;;18.39;82.39
17383;BME280;8809;51.892;8.384;2022-07-29T06:43:03;100598.91;;;18.42;82.38
17383;BME280;8809;51.892;8.384;2022-07-29T06:45:30;100605.09;;;18.46;82.09
17383;BME280;8809;51.892;8.384;2022-07-29T06:48:00;100602.50;;;18.50;82.54
17383;BME280;8809;51.892;8.384;2022-07-29T06:50:27;100608.72;;;18.54;81.82
17383;BME280;8809;51.892;8.384;2022-07-29T06:52:54;100602.53;;;18.55;80.71
17383;BME280;8809;51.892;8.384;2022-07-29T06:55:23;100606.16;;;18.60;81.45
17383;BME280;8809;51.892;8.384;2022-07-29T06:57:50;100600.03;;;18.63;82.02
17383;BME280;8809;51.892;8.384;2022-07-29T07:00:17;100599.16;;;18.67;82.96
17383;BME280;8809;51.892;8.384;2022-07-29T07:02:44;100600.94;;;18.69;81.97
17383;BME280;8809;51.892;8.384;2022-07-29T07:05:12;100604.50;;;18.71;81.43
17383;BME280;8809;51.892;8.384;2022-07-29T07:07:38;100605.41;;;18.73;80.31
17383;BME280;8809;51.892;8.384;2022-07-29T07:10:06;100612.44;;;18.76;80.10
17383;BME280;8809;51.892;8.384;2022-07-29T07:12:35;100611.59;;;18.78;79.07
17383;BME280;8809;51.892;8.384;2022-07-29T07:15:02;100615.16;;;18.80;78.20
17383;BME280;8809;51.892;8.384;2022-07-29T07:17:30;100627.50;;;18.84;78.48
17383;BME280;8809;51.892;8.384;2022-07-29T07:19:57;100627.56;;;18.89;78.99
17383;BME280;8809;51.892;8.384;2022-07-29T07:22:24;100631.13;;;18.93;78.33
17383;BME280;8809;51.892;8.384;2022-07-29T07:24:51;100632.91;;;18.98;79.38
17383;BME280;8809;51.892;8.384;2022-07-29T07:27:18;100637.38;;;19.02;78.55
17383;BME280;8809;51.892;8.384;2022-07-29T07:29:47;100635.59;;;19.06;78.22
17383;BME280;8809;51.892;8.384;2022-07-29T07:32:14;100637.41;;;19.08;77.20
17383;BME280;8809;51.892;8.384;2022-07-29T07:34:41;100640.06;;;19.11;77.83
17383;BME280;8809;51.892;8.384;2022-07-29T07:37:08;100634.78;;;19.14;76.90
17383;BME280;8809;51.892;8.384;2022-07-29T07:39:36;100643.66;;;19.18;77.01
17383;BME280;8809;51.892;8.384;2022-07-29T07:42:03;100643.66;;;19.22;78.42
17383;BME280;8809;51.892;8.384;2022-07-29T07:44:30;100646.38;;;19.28;77.02
17383;BME280;8809;51.892;8.384;2022-07-29T07:46:58;100655.22;;;19.31;76.97
17383;BME280;8809;51.892;8.384;2022-07-29T07:49:25;100642.88;;;19.36;77.18
17383;BME280;8809;51.892;8.384;2022-07-29T07:51:52;100644.69;;;19.40;76.45
17383;BME280;8809;51.892;8.384;2022-07-29T07:54:20;100641.16;;;19.44;78.21
17383;BME280;8809;51.892;8.384;2022-07-29T07:56:47;100634.19;;;19.49;77.89
17383;BME280;8809;51.892;8.384;2022-07-29T07:59:15;100638.59;;;19.51;78.42
17383;BME280;8809;51.892;8.384;2022-07-29T08:01:42;100635.06;;;19.52;77.31
17383;BME280;8809;51.892;8.384;2022-07-29T08:04:11;100632.47;;;19.57;77.66
17383;BME280;8809;51.892;8.384;2022-07-29T08:06:38;100639.53;;;19.61;77.43
17383;BME280;8809;51.892;8.384;2022-07-29T08:09:05;100641.31;;;19.63;75.38
17383;BME280;8809;51.892;8.384;2022-07-29T08:11:32;100636.06;;;19.71;76.26
17383;BME280;8809;51.892;8.384;2022-07-29T08:13:59;100642.25;;;19.75;76.06
17383;BME280;8809;51.892;8.384;2022-07-29T08:16:27;100637.00;;;19.82;75.46
17383;BME280;8809;51.892;8.384;2022-07-29T08:18:54;100637.94;;;19.93;76.92
17383;BME280;8809;51.892;8.384;2022-07-29T08:21:24;100642.38;;;20.04;75.44
17383;BME280;8809;51.892;8.384;2022-07-29T08:23:51;100645.94;;;20.10;73.34
17383;BME280;8809;51.892;8.384;2022-07-29T08:26:40;100641.56;;;20.20;72.00
17383;BME280;8809;51.892;8.384;2022-07-29T08:29:07;100633.66;;;20.27;71.75
17383;BME280;8809;51.892;8.384;2022-07-29T08:31:34;100633.72;;;20.36;72.26
17383;BME280;8809;51.892;8.384;2022-07-29T08:34:02;100636.34;;;20.43;73.24
17383;BME280;8809;51.892;8.384;2022-07-29T08:36:31;100635.47;;;20.50;73.80
17383;BME280;8809;51.892;8.384;2022-07-29T08:38:59;100628.41;;;20.58;74.74
17383;BME280;8809;51.892;8.384;2022-07-29T08:41:27;100629.34;;;20.64;74.78
17383;BME280;8809;51.892;8.384;2022-07-29T08:43:54;100634.63;;;20.73;75.01
17383;BME280;8809;51.892;8.384;2022-07-29T08:46:21;100638.19;;;20.85;74.12
17383;BME280;8809;51.892;8.384;2022-07-29T08:48:49;100638.16;;;20.95;73.51
17383;BME280;8809;51.892;8.384;2022-07-29T08:51:18;100635.53;;;21.01;73.91
17383;BME280;8809;51.892;8.384;2022-07-29T08:53:48;100633.75;;;21.11;73.76
17383;BME280;8809;51.892;8.384;2022-07-29T08:56:16;100625.78;;;21.17;73.75
17383;BME280;8809;51.892;8.384;2022-07-29T08:58:44;100632.00;;;21.28;74.60
17383;BME280;8809;51.892;8.384;2022-07-29T09:01:13;100629.31;;;21.39;75.22
17383;BME280;8809;51.892;8.384;2022-07-29T09:03:41;100626.66;;;21.50;73.95
17383;BME280;8809;51.892;8.384;2022-07-29T09:06:13;100621.28;;;21.63;74.24
17383;BME280;8809;51.892;8.384;2022-07-29T09:08:40;100619.50;;;21.71;73.36
17383;BME280;8809;51.892;8.384;2022-07-29T09:11:09;100615.94;;;21.78;73.77
17383;BME280;8809;51.892;8.384;2022-07-29T09:13:37;100613.25;;;21.83;73.52
17383;BME280;8809;51.892;8.384;2022-07-29T09:16:04;100620.31;;;21.87;72.33
17383;BME280;8809;51.892;8.384;2022-07-29T09:18:36;100612.34;;;21.99;71.27
17383;BME280;8809;51.892;8.384;2022-07-29T09:21:03;100614.06;;;22.09;72.05
17383;BME280;8809;51.892;8.384;2022-07-29T09:24:06;100606.88;;;22.20;71.84
17383;BME280;8809;51.892;8.384;2022-07-29T09:26:36;100609.53;;;22.28;70.09
17383;BME280;8809;51.892;8.384;2022-07-29T09:29:14;100606.81;;;22.36;68.25
17383;BME280;8809;51.892;8.384;2022-07-29T09:31:43;100605.00;;;22.42;70.42
17383;BME280;8809;51.892;8.384;2022-07-29T09:34:12;100600.56;;;22.46;71.14
17383;BME280;8809;51.892;8.384;2022-07-29T09:36:41;100606.69;;;22.52;69.40
17383;BME280;8809;51.892;8.384;2022-07-29T09:39:08;100610.19;;;22.61;70.54
17383;BME280;8809;51.892;8.384;2022-07-29T09:41:50;100609.16;;;22.81;70.87
17383;BME280;8809;51.892;8.384;2022-07-29T09:44:19;100605.53;;;22.94;69.54
17383;BME280;8809;51.892;8.384;2022-07-29T09:46:57;100602.78;;;23.01;68.15
17383;BME280;8809;51.892;8.384;2022-07-29T09:49:25;100599.16;;;23.12;67.68
17383;BME280;8809;51.892;8.384;2022-07-29T09:52:04;100603.41;;;23.30;67.87
17383;BME280;8809;51.892;8.384;2022-07-29T09:54:32;100597.97;;;23.39;65.23
17383;BME280;8809;51.892;8.384;2022-07-29T09:57:04;100599.69;;;23.45;67.57
17383;BME280;8809;51.892;8.384;2022-07-29T09:59:32;100608.44;;;23.57;65.75
17383;BME280;8809;51.892;8.384;2022-07-29T10:02:00;100602.16;;;23.64;67.67
17383;BME280;8809;51.892;8.384;2022-07-29T10:04:38;100596.78;;;23.69;67.29
17383;BME280;8809;51.892;8.384;2022-07-29T10:07:05;100604.75;;;23.71;66.78
17383;BME280;8809;51.892;8.384;2022-07-29T10:09:32;100600.97;;;23.90;66.10
17383;BME280;8809;51.892;8.384;2022-07-29T10:12:06;100604.38;;;24.01;66.02
17383;BME280;8809;51.892;8.384;2022-07-29T10:14:35;100607.72;;;24.14;64.33
17383;BME280;8809;51.892;8.384;2022-07-29T10:17:04;100604.00;;;24.30;62.96
17383;BME280;8809;51.892;8.384;2022-07-29T10:19:32;100607.34;;;24.42;63.62
17383;BME280;8809;51.892;8.384;2022-07-29T10:22:03;100597.38;;;24.55;65.28
17383;BME280;8809;51.892;8.384;2022-07-29T10:24:32;100603.34;;;24.71;64.36
17383;BME280;8809;51.892;8.384;2022-07-29T10:27:01;100598.69;;;24.84;61.66
17383;BME280;8809;51.892;8.384;2022-07-29T10:29:30;100603.72;;;25.05;60.87
17383;BME280;8809;51.892;8.384;2022-07-29T10:32:17;100599.09;;;25.14;58.93
17383;BME280;8809;51.892;8.384;2022-07-29T10:37:45;100601.28;;;25.39;57.27
17383;BME280;8809;51.892;8.384;2022-07-29T10:40:22;100595.91;;;25.42;60.05
17383;BME280;8809;51.892;8.384;2022-07-29T10:43:17;100587.75;;;25.48;62.49
17383;BME280;8809;51.892;8.384;2022-07-29T10:45:49;100585.91;;;25.51;61.59
17383;BME280;8809;51.892;8.384;2022-07-29T10:48:22;100592.78;;;25.66;58.65
17383;BME280;8809;51.892;8.384;2022-07-29T10:50:55;100586.28;;;25.79;58.23
17383;BME280;8809;51.892;8.384;2022-07-29T10:53:22;100589.53;;;25.94;57.35
17383;BME280;8809;51.892;8.384;2022-07-29T10:55:51;100596.44;;;26.04;57.83
17383;BME280;8809;51.892;8.384;2022-07-29T10:58:20;100594.56;;;26.07;55.15
17383;BME280;8809;51.892;8.384;2022-07-29T11:00:50;100593.38;;;26.22;55.10
17383;BME280;8809;51.892;8.384;2022-07-29T11:03:43;100588.50;;;26.41;53.48
17383;BME280;8809;51.892;8.384;2022-07-29T11:06:12;100591.66;;;26.58;53.23
17383;BME280;8809;51.892;8.384;2022-07-29T11:08:40;100589.47;;;26.74;55.52
17383;BME280;8809;51.892;8.384;2022-07-29T11:11:31;100590.91;;;26.88;57.16
17383;BME280;8809;51.892;8.384;2022-07-29T11:13:58;100592.47;;;26.99;55.11
17383;BME280;8809;51.892;8.384;2022-07-29T11:17:00;100593.97;;;27.09;57.63
17383;BME280;8809;51.892;8.384;2022-07-29T11:19:33;100596.56;;;27.12;55.92
17383;BME280;8809;51.892;8.384;2022-07-29T11:22:01;100588.63;;;27.09;52.87
17383;BME280;8809;51.892;8.384;2022-07-29T11:24:29;100597.34;;;27.17;53.33
17383;BME280;8809;51.892;8.384;2022-07-29T11:27:12;100586.38;;;27.26;56.22
17383;BME280;8809;51.892;8.384;2022-07-29T11:29:49;100588.78;;;27.35;55.06
17383;BME280;8809;51.892;8.384;2022-07-29T11:32:19;100589.34;;;27.48;55.37
17383;BME280;8809;51.892;8.384;2022-07-29T11:34:48;100593.88;;;27.46;56.44
17383;BME280;8809;51.892;8.384;2022-07-29T11:37:23;100590.22;;;27.48;56.80
17383;BME280;8809;51.892;8.384;2022-07-29T11:40:21;100587.44;;;27.51;58.73
17383;BME280;8809;51.892;8.384;2022-07-29T11:42:49;100587.31;;;27.57;58.30
17383;BME280;8809;51.892;8.384;2022-07-29T11:45:24;100589.13;;;27.57;56.17
17383;BME280;8809;51.892;8.384;2022-07-29T11:47:59;100590.91;;;27.56;56.28
17383;BME280;8809;51.892;8.384;2022-07-29T11:50:34;100588.91;;;27.64;57.17
17383;BME280;8809;51.892;8.384;2022-07-29T11:53:03;100588.72;;;27.70;58.10
17383;BME280;8809;51.892;8.384;2022-07-29T11:55:37;100585.94;;;27.74;55.88
17383;BME280;8809;51.892;8.384;2022-07-29T11:58:05;100592.56;;;27.91;56.38
17383;BME280;8809;51.892;8.384;2022-07-29T12:00:34;100592.00;;;28.10;56.61
17383;BME280;8809;51.892;8.384;2022-07-29T12:03:05;100587.53;;;28.10;55.98
17383;BME280;8809;51.892;8.384;2022-07-29T12:05:38;100584.34;;;28.27;55.67
17383;BME280;8809;51.892;8.384;2022-07-29T12:08:08;100586.59;;;28.40;55.71
17383;BME280;8809;51.892;8.384;2022-07-29T12:10:36;100586.31;;;28.50;54.09
17383;BME280;8809;51.892;8.384;2022-07-29T12:13:03;100582.63;;;28.54;53.33
17383;BME280;8809;51.892;8.384;2022-07-29T12:15:31;100592.84;;;28.41;49.14
17383;BME280;8809;51.892;8.384;2022-07-29T12:17:58;100580.16;;;28.18;50.87
17383;BME280;8809;51.892;8.384;2022-07-29T12:20:28;100583.84;;;28.14;53.57
17383;BME280;8809;51.892;8.384;2022-07-29T12:22:56;100577.72;;;28.09;55.14
17383;BME280;8809;51.892;8.384;2022-07-29T12:25:23;100585.97;;;28.03;53.76
17383;BME280;8809;51.892;8.384;2022-07-29T12:27:59;100584.69;;;27.87;50.44
17383;BME280;8809;51.892;8.384;2022-07-29T12:30:35;100582.34;;;28.04;55.00
17383;BME280;8809;51.892;8.384;2022-07-29T12:33:17;100580.06;;;28.21;54.32
17383;BME280;8809;51.892;8.384;2022-07-29T12:35:48;100580.34;;;28.40;54.51
17383;BME280;8809;51.892;8.384;2022-07-29T12:38:16;100584.56;;;28.49;52.31
17383;BME280;8809;51.892;8.384;2022-07-29T12:40:45;100579.00;;;28.55;54.22
17383;BME280;8809;51.892;8.384;2022-07-29T12:43:14;100577.13;;;28.57;54.27
17383;BME280;8809;51.892;8.384;2022-07-29T12:45:45;100586.09;;;28.56;51.45
17383;BME280;8809;51.892;8.384;2022-07-29T12:48:13;100573.81;;;28.49;52.36
17383;BME280;8809;51.892;8.384;2022-07-29T12:50:56;100574.91;;;28.43;53.54
17383;BME280;8809;51.892;8.384;2022-07-29T12:53:24;100575.53;;;28.23;49.25
17383;BME280;8809;51.892;8.384;2022-07-29T12:55:54;100572.13;;;28.17;53.17
17383;BME280;8809;51.892;8.384;2022-07-29T12:58:32;100570.47;;;28.13;54.92
17383;BME280;8809;51.892;8.384;2022-07-29T13:01:02;100566.09;;;28.08;54.50
17383;BME280;8809;51.892;8.384;2022-07-29T13:03:43;100565.31;;;28.06;54.64
17383;BME280;8809;51.892;8.384;2022-07-29T13:06:30;100563.75;;;27.98;54.54
17383;BME280;8809;51.892;8.384;2022-07-29T13:09:03;100566.44;;;27.98;55.11
17383;BME280;8809;51.892;8.384;2022-07-29T13:11:31;100570.16;;;27.94;54.85
17383;BME280;8809;51.892;8.384;2022-07-29T13:13:58;100564.88;;;27.91;55.39
17383;BME280;8809;51.892;8.384;2022-07-29T13:16:26;100563.25;;;27.85;55.01
17383;BME280;8809;51.892;8.384;2022-07-29T13:19:10;100567.00;;;27.80;55.19